createdAt,value
2023-05-09T00:00:02.287Z,48.10
2023-05-09T00:05:00.544Z,39.70
2023-05-09T00:10:00.915Z,45.90
2023-05-09T00:15:00.602Z,48.90
2023-05-09T00:20:01.142Z,47.00
2023-05-09T00:25:00.574Z,48.90
2023-05-09T00:30:00.627Z,51.00
2023-05-09T00:35:00.559Z,47.90
2023-05-09T00:40:00.591Z,54.50
2023-05-09T00:45:01.344Z,50.90
2023-05-09T00:50:01.292Z,55.10
2023-05-09T00:55:01.058Z,52.90
2023-05-09T01:00:01.313Z,55.50
2023-05-09T01:05:00.685Z,52.00
2023-05-09T01:10:08.191Z,50.30
2023-05-09T01:15:07.399Z,50.00
2023-05-09T01:20:11.408Z,48.60
2023-05-09T01:25:15.439Z,47.40
2023-05-09T01:30:03.541Z,42.00
2023-05-09T01:35:02.721Z,42.40
2023-05-09T01:40:14.267Z,42.00
2023-05-09T01:45:02.534Z,43.20
2023-05-09T01:50:03.062Z,36.30
2023-05-09T01:55:01.295Z,37.20
2023-05-09T02:00:03.735Z,39.60
2023-05-09T02:05:01.420Z,39.40
2023-05-09T02:10:02.153Z,38.20
2023-05-09T02:15:00.669Z,36.60
2023-05-09T02:20:00.556Z,34.70
2023-05-09T02:25:02.235Z,30.60
2023-05-09T02:30:05.374Z,32.20
2023-05-09T02:35:02.135Z,25.20
2023-05-09T02:40:00.559Z,26.80
2023-05-09T02:45:00.569Z,24.80
2023-05-09T02:50:00.552Z,27.10
2023-05-09T02:55:01.041Z,25.50
2023-05-09T03:00:02.065Z,25.50
2023-05-09T03:05:00.935Z,24.40
2023-05-09T03:10:00.561Z,26.50
2023-05-09T03:15:00.571Z,23.70
2023-05-09T03:20:03.907Z,26.80
2023-05-09T03:25:00.642Z,26.80
2023-05-09T03:30:00.594Z,26.50
2023-05-09T03:35:00.634Z,23.60
2023-05-09T03:40:00.687Z,23.30
2023-05-09T03:45:00.552Z,22.10
2023-05-09T03:50:00.575Z,24.90
2023-05-09T03:55:00.557Z,25.00
2023-05-09T04:00:01.621Z,27.40
2023-05-09T04:05:00.932Z,26.40
2023-05-09T04:10:00.621Z,23.80
2023-05-09T04:15:00.574Z,26.10
2023-05-09T04:20:00.977Z,21.90
2023-05-09T04:25:00.652Z,24.10
2023-05-09T04:30:00.538Z,24.30
2023-05-09T04:35:00.526Z,24.70
2023-05-09T04:40:00.589Z,22.60
2023-05-09T04:45:00.853Z,23.10
2023-05-09T04:50:00.575Z,23.40
2023-05-09T04:55:00.594Z,19.40
2023-05-09T05:00:01.876Z,22.70
2023-05-09T05:05:10.859Z,21.40
2023-05-09T05:10:00.559Z,25.10
2023-05-09T05:15:00.570Z,23.90
2023-05-09T05:20:00.608Z,27.20
2023-05-09T05:25:00.560Z,25.90
2023-05-09T05:30:00.525Z,23.70
2023-05-09T05:35:00.628Z,23.70
2023-05-09T05:40:00.570Z,25.20
2023-05-09T05:45:00.652Z,24.00
2023-05-09T05:50:01.785Z,20.70
2023-05-09T05:55:00.538Z,22.60
2023-05-09T06:00:01.061Z,23.10
2023-05-09T06:05:00.691Z,21.60
2023-05-09T06:10:00.560Z,19.80
2023-05-09T06:15:00.667Z,19.10
2023-05-09T06:20:00.557Z,19.80
2023-05-09T06:25:00.575Z,19.70
2023-05-09T06:30:04.190Z,19.10
2023-05-09T06:35:00.577Z,17.60
2023-05-09T06:40:00.553Z,18.00
2023-05-09T06:45:00.640Z,17.60
2023-05-09T06:50:00.606Z,15.60
2023-05-09T06:55:00.582Z,17.80
2023-05-09T07:00:01.171Z,17.90
2023-05-09T07:05:00.750Z,17.00
2023-05-09T07:10:10.447Z,17.20
2023-05-09T07:15:00.567Z,17.50
2023-05-09T07:20:00.562Z,19.30
2023-05-09T07:25:00.580Z,18.60
2023-05-09T07:30:00.734Z,18.60
2023-05-09T07:35:00.911Z,20.10
2023-05-09T07:40:00.793Z,19.30
2023-05-09T07:45:00.626Z,16.20
2023-05-09T07:50:00.571Z,18.40
2023-05-09T07:55:00.581Z,17.10
2023-05-09T08:00:01.141Z,17.20
2023-05-09T08:05:00.878Z,17.00
2023-05-09T08:10:00.554Z,15.10
2023-05-09T08:15:00.579Z,14.50
2023-05-09T08:20:00.590Z,11.80
2023-05-09T08:25:00.680Z,14.10
2023-05-09T08:30:00.616Z,19.90
2023-05-09T08:35:00.578Z,16.00
2023-05-09T08:40:00.846Z,13.10
2023-05-09T08:45:06.051Z,11.40
2023-05-09T08:50:02.126Z,10.00
2023-05-09T08:55:02.146Z,13.00
2023-05-09T09:00:03.086Z,14.00
2023-05-09T09:05:00.666Z,8.80
2023-05-09T09:10:02.256Z,8.30
2023-05-09T09:15:04.059Z,10.60
2023-05-09T09:20:04.171Z,12.10
2023-05-09T09:25:00.576Z,11.80
2023-05-09T09:30:09.340Z,13.10
2023-05-09T09:35:05.135Z,12.20
2023-05-09T09:40:01.477Z,13.30
2023-05-09T09:45:01.560Z,9.00
2023-05-09T09:50:11.612Z,10.20
2023-05-09T09:55:00.681Z,10.50
2023-05-09T10:00:01.071Z,11.30
2023-05-09T10:05:08.027Z,9.90
2023-05-09T10:10:01.543Z,8.70
2023-05-09T10:15:03.235Z,8.80
2023-05-09T10:20:03.854Z,9.60
2023-05-09T10:25:03.938Z,8.30
2023-05-09T10:30:12.552Z,9.10
2023-05-09T10:35:04.297Z,9.40
2023-05-09T10:40:02.978Z,8.80
2023-05-09T10:45:00.866Z,8.60
2023-05-09T10:50:00.936Z,9.40
2023-05-09T10:55:03.279Z,7.70
2023-05-09T11:00:01.982Z,9.70
2023-05-09T11:05:12.342Z,8.70
2023-05-09T11:10:14.204Z,7.70
2023-05-09T11:15:08.256Z,10.00
2023-05-09T11:20:04.424Z,9.50
2023-05-09T11:25:05.085Z,8.70
2023-05-09T11:30:04.777Z,7.70
2023-05-09T11:35:05.298Z,9.30
2023-05-09T11:40:01.858Z,9.50
2023-05-09T11:45:02.904Z,8.50
2023-05-09T11:50:00.588Z,7.70
2023-05-09T11:55:00.636Z,9.00
2023-05-09T12:00:02.382Z,7.80
2023-05-09T12:05:12.481Z,8.60
2023-05-09T12:10:00.630Z,9.60
2023-05-09T12:15:08.308Z,7.60
2023-05-09T12:20:00.958Z,9.40
2023-05-09T12:25:04.932Z,9.10
2023-05-09T12:30:00.752Z,7.90
2023-05-09T12:35:00.567Z,7.70
2023-05-09T12:40:01.485Z,7.10
2023-05-09T12:45:01.922Z,6.60
2023-05-09T12:50:02.487Z,6.90
2023-05-09T12:55:10.172Z,6.30
2023-05-09T13:00:03.072Z,6.70
2023-05-09T13:05:12.723Z,6.80
2023-05-09T13:10:00.537Z,6.00
2023-05-09T13:15:00.819Z,7.10
2023-05-09T13:20:00.626Z,5.80
2023-05-09T13:25:00.599Z,6.70
2023-05-09T13:30:00.771Z,7.20
2023-05-09T13:35:00.767Z,6.90
2023-05-09T13:40:01.215Z,9.00
2023-05-09T13:45:00.696Z,7.10
2023-05-09T13:50:00.531Z,11.00
2023-05-09T13:55:00.586Z,10.50
2023-05-09T14:00:02.551Z,4.90
2023-05-09T14:05:00.590Z,9.10
2023-05-09T14:10:11.474Z,5.90
2023-05-09T14:20:00.582Z,5.90
2023-05-09T14:25:00.590Z,10.70
2023-05-09T14:30:00.576Z,9.10
2023-05-09T14:35:00.685Z,10.40
2023-05-09T14:40:00.596Z,7.90
2023-05-09T14:45:00.545Z,10.70
2023-05-09T14:50:00.593Z,4.90
2023-05-09T14:55:00.584Z,4.60
2023-05-09T15:00:16.921Z,5.60
2023-05-09T15:05:00.963Z,6.80
2023-05-09T15:10:01.036Z,4.80
2023-05-09T15:15:11.584Z,5.20
2023-05-09T15:20:00.600Z,6.70
2023-05-09T15:25:00.667Z,6.90
2023-05-09T15:30:00.861Z,7.20
2023-05-09T15:35:00.583Z,4.40
2023-05-09T15:40:00.898Z,4.50
2023-05-09T15:45:00.673Z,5.60
2023-05-09T15:50:00.615Z,6.80
2023-05-09T15:55:00.630Z,5.40
2023-05-09T16:00:02.214Z,9.50
2023-05-09T16:05:00.546Z,4.80
2023-05-09T16:10:00.589Z,7.40
2023-05-09T16:15:00.667Z,14.00
2023-05-09T16:20:00.716Z,14.00
2023-05-09T16:25:00.547Z,10.40
2023-05-09T16:30:00.851Z,7.90
2023-05-09T16:35:00.566Z,4.00
2023-05-09T16:40:00.819Z,4.30
2023-05-09T16:45:00.564Z,5.20
2023-05-09T16:50:00.716Z,4.60
2023-05-09T16:55:00.581Z,4.90
2023-05-09T17:00:01.971Z,5.20
2023-05-09T17:05:02.431Z,5.10
2023-05-09T17:10:00.566Z,5.40
2023-05-09T17:15:00.572Z,5.30
2023-05-09T17:20:01.038Z,6.40
2023-05-09T17:25:00.566Z,5.20
2023-05-09T17:30:01.026Z,6.30
2023-05-09T17:35:00.593Z,4.70
2023-05-09T17:40:00.888Z,5.00
2023-05-09T17:45:00.603Z,5.20
2023-05-09T17:50:00.558Z,5.20
2023-05-09T17:55:00.564Z,6.00
2023-05-09T18:00:01.153Z,6.70
2023-05-09T18:05:00.748Z,6.20
2023-05-09T18:10:00.854Z,6.50
2023-05-09T18:15:01.372Z,6.60
2023-05-09T18:20:00.713Z,6.20
2023-05-09T18:25:00.540Z,6.10
2023-05-09T18:30:00.662Z,5.80
2023-05-09T18:35:00.585Z,5.90
2023-05-09T18:40:00.594Z,6.30
2023-05-09T18:45:00.608Z,6.50
2023-05-09T18:50:02.721Z,7.00
2023-05-09T18:55:00.583Z,6.70
2023-05-09T19:00:01.350Z,6.40
2023-05-09T19:05:00.627Z,8.10
2023-05-09T19:10:00.791Z,7.50
2023-05-09T19:15:01.263Z,7.10
2023-05-09T19:20:00.583Z,8.20
2023-05-09T19:25:00.625Z,8.30
2023-05-09T19:30:00.589Z,9.40
2023-05-09T19:35:00.594Z,9.10
2023-05-09T19:40:00.712Z,10.10
2023-05-09T19:45:00.574Z,11.50
2023-05-09T19:50:00.576Z,12.00
2023-05-09T19:55:00.552Z,12.20
2023-05-09T20:00:01.055Z,12.30
2023-05-09T20:05:00.574Z,11.50
2023-05-09T20:10:00.521Z,11.50
2023-05-09T20:15:00.566Z,11.10
2023-05-09T20:20:00.540Z,10.80
2023-05-09T20:25:00.548Z,10.90
2023-05-09T20:30:01.481Z,12.60
2023-05-09T20:35:00.663Z,11.80
2023-05-09T20:40:01.607Z,11.30
2023-05-09T20:45:01.000Z,12.20
2023-05-09T20:50:00.661Z,13.80
2023-05-09T20:55:00.568Z,13.00
2023-05-09T21:00:01.218Z,15.10
2023-05-09T21:05:00.547Z,15.90
2023-05-09T21:10:00.551Z,19.00
2023-05-09T21:15:00.551Z,17.80
2023-05-09T21:20:00.532Z,22.10
2023-05-09T21:25:00.574Z,21.40
2023-05-09T21:30:00.682Z,26.20
2023-05-09T21:35:01.077Z,27.30
2023-05-09T21:40:00.341Z,28.60
2023-05-09T21:45:00.534Z,29.10
2023-05-09T21:50:00.338Z,28.90
2023-05-09T21:55:00.321Z,32.50
2023-05-09T22:00:00.363Z,33.60
2023-05-09T22:05:00.349Z,33.40
2023-05-09T22:10:00.486Z,30.20
2023-05-09T22:15:00.495Z,34.00
2023-05-09T22:20:00.364Z,29.90
2023-05-09T22:25:00.376Z,33.40
2023-05-09T22:30:00.354Z,34.20
2023-05-09T22:35:00.407Z,35.20
2023-05-09T22:40:00.314Z,34.30
2023-05-09T22:45:00.924Z,33.20
2023-05-09T22:50:00.326Z,38.10
2023-05-09T22:55:00.334Z,38.60
2023-05-09T23:00:00.393Z,34.50
2023-05-09T23:05:00.339Z,38.60
2023-05-09T23:10:00.335Z,37.00
2023-05-09T23:15:00.338Z,39.00
2023-05-09T23:20:00.468Z,36.20
2023-05-09T23:25:00.353Z,41.60
2023-05-09T23:30:00.320Z,37.20
2023-05-09T23:35:00.385Z,35.70
2023-05-09T23:40:00.379Z,43.30
2023-05-09T23:45:00.336Z,33.40
2023-05-09T23:50:00.433Z,32.40
2023-05-09T23:55:00.371Z,41.90
